Time;durP1;ratioP1;P1;durP2;ratioP2;P2;SDS_P1;SDS_P2;PMS_P1;PMS_P2;Temp;Humidity;BMP_temperature;BMP_pressure;BME280_temperature;BME280_humidity;BME280_pressure;Samples;Min_cycle;Max_cycle;Signal;HPM_P1;HPM_P2
2022/10/25 00:04:29;;;;;;;19.80;7.30;;;;;;;1.40;82.73;101178.22;10439033;28;20038;-88
2022/10/25 00:09:31;;;;;;;16.30;8.75;;;;;;;1.36;82.85;101170.69;10455904;28;20064;-87
2022/10/25 00:14:33;;;;;;;16.13;6.45;;;;;;;1.32;83.08;101170.28;10457479;28;20045;-84
2022/10/25 00:19:36;;;;;;;15.88;6.93;;;;;;;1.35;83.39;101172.56;10456998;28;20046;-80
2022/10/25 00:24:38;;;;;;;20.73;6.97;;;;;;;1.36;83.63;101166.13;10466056;28;20393;-79
2022/10/25 00:29:40;;;;;;;15.10;6.78;;;;;;;1.36;83.39;101165.28;10451066;28;20052;-80
2022/10/25 00:34:42;;;;;;;13.65;5.93;;;;;;;1.36;83.56;101162.59;10444315;28;20412;-78
2022/10/25 00:39:45;;;;;;;17.48;6.45;;;;;;;1.34;83.91;101164.66;10448728;28;20033;-76
2022/10/25 00:44:54;;;;;;;16.33;7.10;;;;;;;1.34;84.19;101162.78;10430849;28;20033;-76
2022/10/25 00:50:10;;;;;;;14.85;6.68;;;;;;;1.37;83.83;101151.56;10448494;28;20053;-82
2022/10/25 00:55:13;;;;;;;12.50;6.03;;;;;;;1.40;84.53;101150.34;10449496;28;20042;-82
2022/10/25 01:00:15;;;;;;;18.63;7.43;;;;;;;1.40;84.47;101151.16;10457314;28;20046;-76
2022/10/25 01:05:17;;;;;;;17.10;8.02;;;;;;;1.42;84.64;101156.38;10448029;28;20049;-77
2022/10/25 01:10:20;;;;;;;14.27;7.28;;;;;;;1.45;84.39;101156.78;10442540;28;20045;-76
2022/10/25 01:15:27;;;;;;;15.90;6.55;;;;;;;1.44;84.73;101151.56;10447641;28;20542;-78
2022/10/25 01:21:04;;;;;;;15.17;7.73;;;;;;;1.44;84.68;101151.56;10415660;28;20045;-80
2022/10/25 01:26:16;;;;;;;12.48;7.50;;;;;;;1.45;85.00;101145.97;10440516;28;20427;-80
2022/10/25 01:31:44;;;;;;;16.90;7.53;;;;;;;1.44;84.91;101147.00;10448186;28;20050;-78
2022/10/25 01:36:49;;;;;;;19.13;7.30;;;;;;;1.44;84.75;101146.16;10431545;28;20041;-77
2022/10/25 01:41:51;;;;;;;15.43;7.40;;;;;;;1.47;84.72;101151.16;10447798;28;20045;-80
2022/10/25 01:46:58;;;;;;;16.45;6.97;;;;;;;1.48;84.67;101147.41;10447478;28;20042;-79
2022/10/25 01:52:01;;;;;;;11.93;6.57;;;;;;;1.53;85.14;101139.50;10447875;28;20056;-80
2022/10/25 01:57:20;;;;;;;14.68;7.40;;;;;;;1.57;84.51;101139.94;10449162;28;20048;-78
2022/10/25 02:02:23;;;;;;;;;;;;;;;1.58;84.67;101141.59;10445551;28;20033;-78
2022/10/25 02:07:38;;;;;;;14.38;6.40;;;;;;;1.55;85.02;101137.41;10444777;28;19921;-79
2022/10/25 02:12:54;;;;;;;14.48;6.88;;;;;;;1.55;84.52;101131.16;10444936;28;20188;-79
2022/10/25 02:17:59;;;;;;;19.13;8.15;;;;;;;1.46;85.03;101131.41;10444910;28;20065;-79
2022/10/25 02:23:03;;;;;;;16.35;7.55;;;;;;;1.45;85.30;101132.44;10456330;28;20037;-78
2022/10/25 02:28:07;;;;;;;13.90;6.80;;;;;;;1.38;84.98;101131.59;10443561;28;20048;-80
2022/10/25 02:33:10;;;;;;;14.32;6.40;;;;;;;1.35;85.56;101131.19;10447481;28;20056;-79
2022/10/25 02:38:12;;;;;;;15.80;7.60;;;;;;;1.33;85.42;101127.84;10420157;28;20052;-79
2022/10/25 02:43:15;;;;;;;15.40;7.43;;;;;;;1.34;85.32;101129.53;10453785;28;20419;-80
2022/10/25 02:48:17;;;;;;;11.30;5.65;;;;;;;1.32;85.62;101132.44;10446860;28;20048;-80
2022/10/25 02:53:19;;;;;;;13.82;6.38;;;;;;;1.27;85.53;101134.94;10444531;28;20524;-79
2022/10/25 02:58:21;;;;;;;15.95;5.68;;;;;;;1.24;85.66;101123.72;10443201;28;20057;-79
2022/10/25 03:03:23;;;;;;;12.57;6.18;;;;;;;1.22;85.91;101125.81;10443999;28;20049;-79
2022/10/25 03:08:26;;;;;;;11.40;5.65;;;;;;;1.18;86.14;101126.19;10416286;28;20533;-79
2022/10/25 03:13:28;;;;;;;9.85;5.60;;;;;;;1.20;85.81;101131.38;10440983;28;20042;-79
2022/10/25 03:18:30;;;;;;;12.07;6.47;;;;;;;1.16;86.13;101122.88;10443660;28;20056;-80
2022/10/25 03:23:33;;;;;;;11.90;5.45;;;;;;;1.15;85.71;101123.91;10448143;28;20037;-80
2022/10/25 03:28:39;;;;;;;8.07;4.45;;;;;;;1.15;85.99;101114.97;10442402;28;20041;-80
2022/10/25 03:33:41;;;;;;;10.45;4.50;;;;;;;1.14;85.77;101116.00;10462307;28;20037;-79
2022/10/25 03:38:44;;;;;;;8.05;4.25;;;;;;;1.11;85.92;101117.25;10481288;28;20049;-79
2022/10/25 03:43:51;;;;;;;16.17;5.72;;;;;;;1.09;85.97;101116.63;10440372;28;20041;-79
2022/10/25 03:48:53;;;;;;;18.00;7.32;;;;;;;1.05;85.83;101104.59;10466875;28;20072;-79
2022/10/25 03:53:55;;;;;;;18.38;7.60;;;;;;;0.99;86.25;101101.88;10454804;28;20495;-79
2022/10/25 03:58:57;;;;;;;19.08;8.30;;;;;;;0.93;86.13;101094.59;10452827;28;20045;-79
2022/10/25 04:03:59;;;;;;;19.98;8.30;;;;;;;0.84;85.99;101093.94;10440170;28;20053;-79
2022/10/25 04:09:02;;;;;;;15.23;8.75;;;;;;;0.73;86.20;101095.41;10452491;28;20491;-81
2022/10/25 04:14:04;;;;;;;17.65;9.70;;;;;;;0.65;86.32;101087.47;10447574;28;20060;-81
2022/10/25 04:19:06;;;;;;;19.00;9.48;;;;;;;0.56;86.12;101089.56;10445954;28;20428;-81
2022/10/25 04:24:09;;;;;;;21.77;11.15;;;;;;;0.48;86.65;101086.19;10425901;28;20491;-82
2022/10/25 04:29:11;;;;;;;28.98;12.35;;;;;;;0.39;86.84;101092.84;10463077;28;20052;-80
2022/10/25 04:34:14;;;;;;;20.85;10.93;;;;;;;0.29;86.99;101094.03;10470429;28;20041;-80
2022/10/25 04:39:16;;;;;;;22.10;10.90;;;;;;;0.21;87.20;101094.22;10455566;28;20045;-80
2022/10/25 04:44:18;;;;;;;21.77;11.35;;;;;;;0.13;87.08;101083.59;10472084;28;20042;-80
2022/10/25 04:49:20;;;;;;;25.38;11.82;;;;;;;0.05;87.26;101093.75;10475134;28;20423;-80
2022/10/25 04:54:22;;;;;;;27.25;11.85;;;;;;;-0.02;87.60;101091.00;10443752;28;20037;-80
2022/10/25 04:59:24;;;;;;;29.00;11.25;;;;;;;-0.08;87.96;101095.34;10449275;28;20045;-80
2022/10/25 05:04:26;;;;;;;24.73;11.38;;;;;;;-0.16;88.20;101100.91;10450077;28;20042;-80
2022/10/25 05:09:29;;;;;;;31.45;12.43;;;;;;;-0.25;88.08;101096.69;10448690;28;20089;-81
2022/10/25 05:14:31;;;;;;;21.65;11.65;;;;;;;-0.31;88.32;101094.81;10408346;28;20046;-81
2022/10/25 05:19:33;;;;;;;28.75;12.13;;;;;;;-0.35;88.37;101099.78;10443662;28;20049;-80
2022/10/25 05:24:36;;;;;;;24.33;12.55;;;;;;;-0.21;87.94;101097.13;10447777;28;20044;-80
2022/10/25 05:29:38;;;;;;;22.08;10.60;;;;;;;0.17;88.30;101094.81;10449131;28;20041;-81
2022/10/25 05:34:40;;;;;;;25.90;10.38;;;;;;;0.59;87.91;101093.72;10448043;28;20048;-80
2022/10/25 05:39:42;;;;;;;22.55;11.82;;;;;;;0.76;86.81;101099.56;10448703;28;20033;-75
2022/10/25 05:44:44;;;;;;;24.98;10.95;;;;;;;1.05;85.00;101092.94;10448916;28;20060;-74
2022/10/25 05:49:47;;;;;;;19.30;9.98;;;;;;;1.56;84.03;101097.66;10448581;28;20045;-74
2022/10/25 05:54:49;;;;;;;20.67;9.85;;;;;;;1.94;82.78;101090.53;10460650;28;20037;-73
2022/10/25 05:59:51;;;;;;;24.90;9.75;;;;;;;2.77;81.21;101086.94;10446288;28;20040;-75
2022/10/25 06:04:53;;;;;;;20.90;9.70;;;;;;;3.28;78.57;101076.75;10451658;28;20049;-75
2022/10/25 06:09:55;;;;;;;19.92;10.35;;;;;;;3.82;76.35;101080.63;10450079;28;20042;-74
2022/10/25 06:14:58;;;;;;;24.30;9.18;;;;;;;4.14;73.48;101083.16;10446148;28;20053;-74
2022/10/25 06:20:01;;;;;;;18.50;9.00;;;;;;;4.56;71.68;101078.63;10446038;28;20046;-74
2022/10/25 06:25:03;;;;;;;18.60;8.77;;;;;;;4.51;69.37;101082.06;10447177;28;20049;-74
2022/10/25 06:30:06;;;;;;;18.90;9.07;;;;;;;4.80;67.77;101087.69;10446263;28;20045;-74
2022/10/25 06:35:08;;;;;;;19.20;9.30;;;;;;;5.05;66.47;101084.81;10445273;28;20060;-74
2022/10/25 06:40:11;;;;;;;19.33;8.02;;;;;;;4.98;66.37;101093.06;10446671;28;20500;-74
2022/10/25 06:45:13;;;;;;;20.05;9.40;;;;;;;5.29;65.83;101093.81;10445307;28;20046;-74
2022/10/25 06:50:15;;;;;;;14.43;8.38;;;;;;;5.25;64.87;101100.78;10446244;28;20519;-75
2022/10/25 06:55:17;;;;;;;24.00;8.70;;;;;;;5.70;64.61;101101.03;10445034;28;20067;-75
2022/10/25 07:00:20;;;;;;;19.60;8.82;;;;;;;5.90;63.20;101109.72;10446150;28;20209;-75
2022/10/25 07:05:22;;;;;;;18.95;8.45;;;;;;;6.01;63.33;101100.69;10444675;28;20052;-75
2022/10/25 07:10:24;;;;;;;19.67;8.30;;;;;;;6.49;61.46;101110.41;10445388;28;20057;-75
2022/10/25 07:15:27;;;;;;;21.70;9.18;;;;;;;6.65;60.63;101108.78;10441677;28;20033;-75
2022/10/25 07:20:29;;;;;;;19.58;8.82;;;;;;;6.85;59.55;101109.16;10443033;28;20054;-74
2022/10/25 07:25:31;;;;;;;16.02;8.93;;;;;;;7.00;58.92;101113.25;10444681;28;20049;-75
2022/10/25 07:30:33;;;;;;;16.77;8.45;;;;;;;7.01;58.70;101109.44;10444565;28;20064;-75
2022/10/25 07:35:35;;;;;;;18.10;9.00;;;;;;;7.13;58.40;101119.22;10444668;28;20045;-75
2022/10/25 07:40:37;;;;;;;19.05;8.57;;;;;;;7.48;57.39;101105.34;10442716;28;20567;-74
2022/10/25 07:45:40;;;;;;;19.92;9.05;;;;;;;7.93;56.78;101112.53;10438361;28;20046;-75
2022/10/25 07:50:42;;;;;;;20.63;9.77;;;;;;;8.38;55.20;101109.63;10385670;28;20049;-74
2022/10/25 07:55:51;;;;;;;18.80;10.75;;;;;;;8.20;55.13;101104.44;10416992;28;20510;-74
2022/10/25 08:00:59;;;;;;;18.55;9.75;;;;;;;7.99;56.18;101108.00;10442199;28;20037;-75
2022/10/25 08:06:02;;;;;;;23.85;9.45;;;;;;;8.26;55.66;101105.31;10442579;28;20045;-75
2022/10/25 08:11:06;;;;;;;15.77;7.68;;;;;;;8.83;53.44;101111.19;10441419;28;20057;-75
2022/10/25 08:16:09;;;;;;;14.38;7.28;;;;;;;9.06;53.23;101108.16;10443321;28;20053;-74
2022/10/25 08:21:11;;;;;;;11.55;7.45;;;;;;;8.83;52.96;101102.16;10443574;28;20061;-74
2022/10/25 08:26:13;;;;;;;12.43;7.43;;;;;;;7.62;55.06;101113.16;10442413;28;20499;-74
2022/10/25 08:31:15;;;;;;;13.70;7.10;;;;;;;6.84;57.06;101110.25;10449459;28;20056;-74
2022/10/25 08:36:17;;;;;;;15.10;7.50;;;;;;;6.05;59.65;101111.91;10424826;28;20413;-73
2022/10/25 08:41:32;;;;;;;13.45;7.15;;;;;;;5.91;60.41;101114.09;10410286;28;20038;-73
2022/10/25 08:46:42;;;;;;;12.25;6.20;;;;;;;5.72;61.35;101112.50;10410874;28;20045;-73
2022/10/25 08:51:47;;;;;;;12.00;7.07;;;;;;;5.54;61.42;101102.56;10449491;28;20080;-74
2022/10/25 08:56:52;;;;;;;13.15;6.10;;;;;;;5.23;62.68;101105.66;10447963;28;20056;-73
2022/10/25 09:01:57;;;;;;;11.32;6.15;;;;;;;5.01;63.63;101106.19;10432569;28;20064;-73
2022/10/25 09:07:18;;;;;;;9.68;5.15;;;;;;;4.77;64.18;101101.75;10430161;28;20056;-74
2022/10/25 09:12:28;;;;;;;13.32;5.72;;;;;;;4.69;63.53;101096.66;10447469;28;20041;-75
2022/10/25 09:17:45;;;;;;;12.95;6.63;;;;;;;4.57;64.31;101093.06;10446080;28;20044;-76
2022/10/25 09:22:53;;;;;;;8.60;5.60;;;;;;;4.43;64.40;101092.41;10449763;28;20046;-76
2022/10/25 09:28:02;;;;;;;13.65;5.65;;;;;;;4.20;65.56;101093.13;10430525;28;20041;-76
2022/10/25 09:33:16;;;;;;;10.23;5.68;;;;;;;4.07;65.84;101085.94;10445389;28;20052;-76
2022/10/25 09:38:37;;;;;;;9.85;5.72;;;;;;;4.02;66.06;101083.09;10448936;28;20100;-75
2022/10/25 09:43:48;;;;;;;9.07;4.40;;;;;;;3.96;65.27;101069.59;10439955;28;20041;-75
2022/10/25 09:49:15;;;;;;;9.00;4.57;;;;;;;4.03;66.30;101073.06;10419755;28;20045;-75
2022/10/25 09:54:30;;;;;;;9.32;4.30;;;;;;;4.03;66.06;101073.91;10408049;28;20386;-76
2022/10/25 09:59:32;;;;;;;7.97;4.18;;;;;;;4.06;65.17;101061.75;10442118;28;20056;-75
2022/10/25 10:04:38;;;;;;;8.48;3.92;;;;;;;3.98;64.44;101068.28;10447819;28;20046;-74
2022/10/25 10:09:41;;;;;;;9.18;4.07;;;;;;;3.92;64.92;101058.34;10444095;28;20052;-76
2022/10/25 10:15:10;;;;;;;9.00;4.22;;;;;;;3.86;64.63;101059.28;10438429;28;20053;-77
2022/10/25 10:20:15;;;;;;;6.68;3.88;;;;;;;3.71;65.52;101054.22;10407354;28;20046;-76
2022/10/25 10:25:24;;;;;;;7.03;3.10;;;;;;;3.67;65.05;101054.91;10446101;28;20053;-76
2022/10/25 10:30:28;;;;;;;6.07;2.92;;;;;;;3.61;65.57;101056.59;10445811;28;20447;-76
2022/10/25 10:35:33;;;;;;;5.78;2.20;;;;;;;3.59;64.92;101054.13;10483413;28;20037;-76
2022/10/25 10:40:36;;;;;;;6.20;2.80;;;;;;;3.56;65.17;101053.75;10447420;28;20065;-75
2022/10/25 10:45:48;;;;;;;5.55;2.60;;;;;;;3.49;65.61;101047.56;10446758;28;20053;-75
2022/10/25 10:50:51;;;;;;;4.75;2.17;;;;;;;3.51;66.02;101049.00;10446976;28;20050;-74
2022/10/25 10:55:55;;;;;;;2.60;2.05;;;;;;;3.53;66.64;101035.22;10442835;28;20049;-75
2022/10/25 11:01:01;;;;;;;3.72;2.28;;;;;;;3.55;66.13;101041.25;10443607;28;20049;-74
2022/10/25 11:06:12;;;;;;;4.68;2.28;;;;;;;3.46;66.07;101048.81;10443086;28;20037;-74
2022/10/25 11:11:21;;;;;;;7.05;2.83;;;;;;;3.38;66.88;101045.59;10437175;28;20056;-74
2022/10/25 11:16:52;;;;;;;4.82;2.25;;;;;;;3.35;67.14;101046.88;10443499;28;20045;-75
2022/10/25 11:22:09;;;;;;;3.28;2.10;;;;;;;3.37;67.51;101038.50;10444548;28;20045;-74
2022/10/25 11:27:25;;;;;;;2.92;1.58;;;;;;;3.38;67.58;101024.72;10445332;28;20044;-74
2022/10/25 11:32:45;;;;;;;7.07;1.80;;;;;;;3.37;66.95;101044.75;10444798;28;20057;-77
2022/10/25 11:37:50;;;;;;;4.60;1.52;;;;;;;3.32;66.86;101037.31;10438407;28;20045;-77
2022/10/25 11:42:55;;;;;;;4.13;1.90;;;;;;;3.30;66.82;101034.00;10434535;28;20056;-75
2022/10/25 11:48:03;;;;;;;2.95;1.73;;;;;;;3.32;66.31;101031.88;10443090;28;20053;-76
2022/10/25 11:53:24;;;;;;;;;;;;;;;3.31;66.52;101019.38;10445164;28;20071;-76
2022/10/25 11:58:44;;;;;;;6.15;1.80;;;;;;;3.40;66.67;101022.59;10449374;28;19928;-75
2022/10/25 12:03:59;;;;;;;1.67;1.38;;;;;;;3.42;65.51;101019.66;10445238;28;20057;-77
2022/10/25 12:09:23;;;;;;;3.78;1.65;;;;;;;3.43;66.09;101015.91;10452336;28;20519;-76
2022/10/25 12:14:33;;;;;;;4.03;1.45;;;;;;;3.45;65.76;101016.50;10446275;28;20041;-74
2022/10/25 12:19:42;;;;;;;3.97;1.75;;;;;;;3.46;65.44;101012.72;10449456;28;20504;-76
2022/10/25 12:24:49;;;;;;;3.90;2.05;;;;;;;3.48;64.57;101026.94;10446634;28;20526;-75
2022/10/25 12:30:17;;;;;;;3.58;2.00;;;;;;;3.49;64.35;101017.72;10463734;28;20055;-84
2022/10/25 12:35:23;;;;;;;6.47;1.80;;;;;;;3.49;64.69;101013.13;10464262;28;20045;-78
2022/10/25 12:40:31;;;;;;;3.65;2.05;;;;;;;3.53;65.85;101005.38;10469991;28;20037;-76
2022/10/25 12:45:55;;;;;;;3.75;1.67;;;;;;;3.55;64.75;101008.69;10448702;28;20045;-77
2022/10/25 12:51:25;;;;;;;3.75;2.00;;;;;;;3.51;65.06;101008.31;10451245;28;20053;-77
2022/10/25 12:57:08;;;;;;;3.97;2.22;;;;;;;3.50;64.92;101012.06;10437882;28;20064;-76
2022/10/25 13:02:36;;;;;;;4.53;2.22;;;;;;;3.50;65.16;100994.97;10444007;28;20053;-74
2022/10/25 13:07:38;;;;;;;;;;;;;;;3.45;64.69;100983.94;10443760;28;20049;-76
2022/10/25 13:12:41;;;;;;;4.38;2.20;;;;;;;3.43;64.70;100988.78;10424017;28;19921;-76
2022/10/25 13:17:46;;;;;;;3.30;2.05;;;;;;;3.43;64.23;100986.06;10443769;28;20046;-76
2022/10/25 13:22:49;;;;;;;4.30;2.13;;;;;;;3.39;63.73;100982.13;10446936;28;20046;-76
2022/10/25 13:28:09;;;;;;;6.88;2.42;;;;;;;3.41;64.24;100989.00;10446981;28;20044;-76
2022/10/25 13:33:20;;;;;;;3.70;1.58;;;;;;;3.42;63.74;100987.13;10445621;28;20041;-76
2022/10/25 13:38:25;;;;;;;7.30;2.20;;;;;;;3.46;63.42;100977.47;10442740;28;20561;-79
2022/10/25 13:43:27;;;;;;;3.33;1.77;;;;;;;3.45;63.32;100976.63;10446540;28;21614;-81
2022/10/25 13:48:32;;;;;;;5.03;2.47;;;;;;;3.43;63.79;100973.31;10430877;28;20044;-77
2022/10/25 13:53:40;;;;;;;7.68;2.28;;;;;;;3.42;63.27;100958.09;10440141;28;20061;-77
2022/10/25 13:58:47;;;;;;;5.60;1.70;;;;;;;3.41;63.13;100980.03;10445609;28;20048;-80
2022/10/25 14:04:01;;;;;;;3.57;1.90;;;;;;;3.39;62.90;100971.28;10438631;28;20472;-80
2022/10/25 14:09:29;;;;;;;5.13;1.75;;;;;;;3.41;63.57;100952.91;10440670;28;20048;-78
2022/10/25 14:14:44;;;;;;;7.10;1.98;;;;;;;3.46;63.79;100955.75;10445984;28;20041;-82
2022/10/25 14:19:55;;;;;;;3.35;1.70;;;;;;;3.49;63.47;100947.19;10445337;28;20045;-90
2022/10/25 14:24:59;;;;;;;4.75;1.50;;;;;;;3.45;63.44;100943.25;10432971;28;20053;-83
2022/10/25 14:30:21;;;;;;;4.30;1.50;;;;;;;3.44;63.39;100947.03;10433915;28;20045;-82
2022/10/25 14:35:33;;;;;;;4.55;1.92;;;;;;;3.39;63.29;100960.44;10452240;28;20034;-86
2022/10/25 14:40:35;;;;;;;3.55;2.15;;;;;;;3.30;63.40;100960.75;10451004;28;20084;-78
2022/10/25 14:45:38;;;;;;;4.10;1.83;;;;;;;3.25;63.33;100951.63;10423153;28;20041;-78
2022/10/25 14:50:41;;;;;;;2.72;1.20;;;;;;;3.23;63.27;100945.59;10444787;28;20550;-76
2022/10/25 14:55:52;;;;;;;2.75;1.90;;;;;;;3.17;63.14;100944.63;10419569;28;20041;-77
2022/10/25 15:01:00;;;;;;;2.65;1.83;;;;;;;3.17;63.54;100949.22;10425781;28;20053;-78
2022/10/25 15:06:04;;;;;;;4.00;1.63;;;;;;;3.14;63.15;100958.63;10441532;28;20045;-78
2022/10/25 15:11:08;;;;;;;4.10;1.48;;;;;;;3.22;64.13;100955.63;10445167;28;20045;-79
2022/10/25 15:16:32;;;;;;;5.70;2.20;;;;;;;3.22;63.23;100958.31;10437900;28;20574;-80
2022/10/25 15:21:41;;;;;;;3.35;1.42;;;;;;;3.25;63.91;100947.03;10439072;28;20049;-78
2022/10/25 15:26:57;;;;;;;3.63;1.70;;;;;;;3.25;63.76;100960.59;10438250;28;20140;-78
2022/10/25 15:31:59;;;;;;;6.32;2.20;;;;;;;3.19;64.50;100942.50;10440733;28;20049;-77
2022/10/25 15:37:01;;;;;;;3.90;1.65;;;;;;;3.11;64.93;100947.38;10434550;28;20037;-80
2022/10/25 15:42:04;;;;;;;3.65;1.15;;;;;;;3.15;65.11;100938.59;10433391;28;20323;-77
2022/10/25 15:47:19;;;;;;;3.92;1.80;;;;;;;3.10;65.85;100934.88;10415830;28;20053;-75
2022/10/25 15:52:22;;;;;;;2.90;1.13;;;;;;;3.05;65.84;100932.84;10438320;28;20424;-77
2022/10/25 15:57:26;;;;;;;1.80;1.30;;;;;;;2.94;66.31;100931.69;10422180;28;20040;-77
2022/10/25 16:02:30;;;;;;;4.05;1.42;;;;;;;2.86;66.72;100926.56;10440352;28;20527;-76
2022/10/25 16:07:32;;;;;;;3.65;1.63;;;;;;;2.88;66.60;100923.66;10437428;28;20500;-77
2022/10/25 16:12:36;;;;;;;3.50;1.90;;;;;;;2.86;67.18;100932.00;10444735;28;20037;-77
2022/10/25 16:17:39;;;;;;;3.63;1.23;;;;;;;2.90;67.46;100919.66;10414540;28;20054;-79
2022/10/25 16:22:41;;;;;;;3.33;1.80;;;;;;;2.90;68.58;100921.53;10422021;28;20041;-77
2022/10/25 16:27:45;;;;;;;2.17;1.27;;;;;;;2.86;68.13;100917.63;10444128;28;20046;-76
2022/10/25 16:32:47;;;;;;;2.65;1.60;;;;;;;2.91;68.17;100920.47;10442649;28;20040;-76
2022/10/25 16:37:50;;;;;;;2.13;1.33;;;;;;;2.87;68.58;100920.09;10423334;28;20045;-78
2022/10/25 16:42:53;;;;;;;5.35;2.10;;;;;;;2.75;68.71;100932.72;10438530;28;20037;-78
2022/10/25 16:47:57;;;;;;;3.65;1.85;;;;;;;2.75;68.49;100921.88;10466204;28;20049;-78
2022/10/25 16:53:01;;;;;;;3.38;1.50;;;;;;;2.70;68.47;100914.44;10448791;28;20053;-77
2022/10/25 16:58:03;;;;;;;2.30;1.50;;;;;;;2.67;69.05;100919.47;10449381;28;20052;-77
2022/10/25 17:03:06;;;;;;;2.60;1.48;;;;;;;2.76;68.67;100903.75;10451815;28;20054;-78
2022/10/25 17:08:08;;;;;;;2.83;1.65;;;;;;;2.74;68.28;100920.22;10444525;28;20045;-75
2022/10/25 17:13:16;;;;;;;2.30;1.45;;;;;;;2.69;68.75;100911.94;10449590;28;20049;-77
2022/10/25 17:18:19;;;;;;;;;;;;;;;2.67;69.37;100906.75;10434573;28;20045;-77
2022/10/25 17:23:22;;;;;;;2.10;1.60;;;;;;;2.66;70.09;100917.81;10446070;28;19928;-76
2022/10/25 17:28:24;;;;;;;3.55;1.80;;;;;;;2.55;72.45;100908.53;10444079;28;20037;-74
2022/10/25 17:33:26;;;;;;;4.20;1.75;;;;;;;2.31;75.87;100910.19;10445920;28;20049;-76
2022/10/25 17:38:29;;;;;;;2.67;1.50;;;;;;;2.13;77.67;100901.16;10451517;28;20045;-75
2022/10/25 17:43:33;;;;;;;5.15;1.52;;;;;;;1.94;80.19;100909.19;10434052;28;20419;-76
2022/10/25 17:48:35;;;;;;;2.45;1.15;;;;;;;1.78;81.27;100899.72;10443379;28;20033;-77
2022/10/25 17:53:37;;;;;;;2.92;1.50;;;;;;;1.72;82.54;100897.03;10430097;28;20056;-78
2022/10/25 17:58:41;;;;;;;2.65;1.70;;;;;;;1.65;83.09;100893.53;10446857;28;20052;-77
2022/10/25 18:03:43;;;;;;;3.53;1.88;;;;;;;1.67;82.90;100876.06;10430916;28;20407;-91
2022/10/25 18:08:53;;;;;;;1.42;1.30;;;;;;;1.65;83.83;100880.03;10441634;28;20045;-89
2022/10/25 18:13:59;;;;;;;2.60;1.05;;;;;;;1.59;84.83;100878.19;10416144;28;20048;-87
2022/10/25 18:19:04;;;;;;;2.50;1.55;;;;;;;1.53;85.62;100874.47;10442516;28;20053;-84
2022/10/25 18:24:07;;;;;;;3.90;1.75;;;;;;;1.51;84.52;100861.16;10444403;28;20073;-80
2022/10/25 18:29:09;;;;;;;2.42;1.00;;;;;;;1.49;85.43;100870.53;10445419;28;20049;-88
2022/10/25 18:34:11;;;;;;;4.30;1.20;;;;;;;1.46;86.25;100869.09;10445703;28;20060;-86
2022/10/25 18:39:13;;;;;;;1.50;1.13;;;;;;;1.41;86.90;100870.78;10433907;28;20033;-86
2022/10/25 18:44:16;;;;;;;3.05;1.50;;;;;;;1.36;87.55;100868.72;10436441;28;20040;-87
2022/10/25 18:49:18;;;;;;;1.55;1.17;;;;;;;1.34;87.48;100868.09;10447285;28;20040;-91
2022/10/25 18:54:20;;;;;;;2.97;1.65;;;;;;;1.38;87.75;100861.22;10448765;28;20053;-89
2022/10/25 18:59:23;;;;;;;1.83;1.15;;;;;;;1.38;87.64;100861.22;10441468;28;20049;-89
2022/10/25 19:04:26;;;;;;;1.95;1.10;;;;;;;1.38;87.41;100855.81;10457415;28;20049;-90
2022/10/25 19:09:28;;;;;;;3.30;1.70;;;;;;;1.35;87.72;100845.44;10477246;28;20044;-88
2022/10/25 19:14:30;;;;;;;4.00;1.40;;;;;;;1.39;88.18;100845.81;10443426;28;20045;-92
2022/10/25 19:19:33;;;;;;;3.53;1.38;;;;;;;1.38;88.16;100847.69;10444061;28;20046;-87
2022/10/25 19:24:37;;;;;;;3.42;2.28;;;;;;;1.37;88.63;100850.63;10445349;28;20045;-89
2022/10/25 19:29:39;;;;;;;3.97;2.03;;;;;;;1.39;88.51;100845.81;10443822;28;20048;-87
2022/10/25 19:34:41;;;;;;;4.53;2.40;;;;;;;1.36;88.63;100838.97;10446097;28;20045;-89
2022/10/25 19:39:43;;;;;;;6.70;2.75;;;;;;;1.44;88.94;100838.75;10445114;28;20044;-84
2022/10/25 19:44:46;;;;;;;5.47;2.45;;;;;;;1.43;89.66;100836.25;10447805;28;20060;-87
2022/10/25 19:49:48;;;;;;;4.15;2.17;;;;;;;1.42;89.50;100821.06;10436463;28;20049;-76
2022/10/25 19:54:50;;;;;;;4.70;2.30;;;;;;;1.45;88.96;100840.41;10445508;28;20076;-84
2022/10/25 19:59:52;;;;;;;3.25;2.13;;;;;;;1.43;89.72;100818.16;10444573;28;20058;-73
2022/10/25 20:04:55;;;;;;;5.07;2.20;;;;;;;1.42;89.53;100821.06;10437935;28;20060;-74
2022/10/25 20:09:57;;;;;;;3.03;2.00;;;;;;;1.40;90.07;100813.19;10435153;28;20052;-75
2022/10/25 20:14:59;;;;;;;4.40;2.03;;;;;;;1.39;90.51;100808.81;10440820;28;20049;-75
2022/10/25 20:20:02;;;;;;;4.50;2.47;;;;;;;1.38;90.72;100812.53;10439666;28;20062;-74
2022/10/25 20:25:05;;;;;;;3.45;2.15;;;;;;;1.40;90.97;100807.78;10443490;28;20053;-77
2022/10/25 20:30:08;;;;;;;4.22;1.85;;;;;;;1.38;91.42;100795.50;10452955;28;20045;-72
2022/10/25 20:35:10;;;;;;;3.92;2.58;;;;;;;1.40;91.57;100796.97;10475330;28;20053;-79
2022/10/25 20:40:12;;;;;;;6.18;3.25;;;;;;;1.40;91.74;100799.66;10472390;28;20041;-77
2022/10/25 20:45:14;;;;;;;8.98;5.30;;;;;;;1.36;92.63;100793.00;10449845;28;20416;-74
2022/10/25 20:50:16;;;;;;;9.20;4.28;;;;;;;1.33;92.77;100782.63;10440955;28;20049;-80
2022/10/25 20:55:19;;;;;;;8.73;4.85;;;;;;;1.33;93.21;100777.22;10463608;28;20041;-79
2022/10/25 21:00:22;;;;;;;5.95;3.65;;;;;;;1.32;93.31;100774.75;10469978;28;20036;-81
2022/10/25 21:05:24;;;;;;;4.10;2.60;;;;;;;1.31;94.22;100773.91;10447923;28;20050;-82
2022/10/25 21:10:26;;;;;;;4.63;2.75;;;;;;;1.30;94.66;100768.72;10462401;28;20042;-81
2022/10/25 21:15:29;;;;;;;5.15;2.30;;;;;;;1.29;95.00;100759.78;10449822;28;20041;-86
2022/10/25 21:20:31;;;;;;;6.38;2.70;;;;;;;1.26;95.69;100749.41;10448529;28;20045;-86
2022/10/25 21:25:34;;;;;;;5.50;3.10;;;;;;;1.25;95.95;100758.56;10475057;28;20045;-79
2022/10/25 21:30:36;;;;;;;5.30;2.50;;;;;;;1.23;96.58;100749.88;10447368;28;20081;-78
2022/10/25 21:35:38;;;;;;;5.43;3.72;;;;;;;1.21;97.34;100746.53;10472282;28;20049;-79
2022/10/25 21:40:40;;;;;;;4.70;3.22;;;;;;;1.22;97.51;100736.56;10449513;28;20056;-78
2022/10/25 21:45:43;;;;;;;4.35;3.22;;;;;;;1.20;97.59;100734.06;10446392;28;20057;-77
2022/10/25 21:50:52;;;;;;;2.45;2.25;;;;;;;1.23;97.70;100727.41;10447070;28;20044;-79
2022/10/25 21:56:11;;;;;;;3.50;2.20;;;;;;;1.23;98.50;100732.81;10448684;28;20056;-79
2022/10/25 22:01:16;;;;;;;3.22;2.40;;;;;;;1.20;98.50;100731.34;10450738;28;20060;-81
2022/10/25 22:06:20;;;;;;;3.35;2.20;;;;;;;1.22;98.90;100736.56;10427262;28;20081;-78
2022/10/25 22:11:31;;;;;;;3.95;2.78;;;;;;;1.24;99.53;100731.78;10453134;28;20495;-76
2022/10/25 22:16:33;;;;;;;5.57;2.60;;;;;;;1.23;99.42;100738.22;10429125;28;20171;-78
2022/10/25 22:21:37;;;;;;;3.17;2.47;;;;;;;1.24;99.82;100732.59;10445090;28;20054;-75
2022/10/25 22:26:42;;;;;;;4.82;2.25;;;;;;;1.25;100.00;100722.63;10446918;28;20049;-79
2022/10/25 22:31:44;;;;;;;2.75;2.05;;;;;;;1.25;100.00;100725.31;10446115;28;20041;-76
2022/10/25 22:36:46;;;;;;;5.35;3.15;;;;;;;1.28;100.00;100724.88;10445896;28;20141;-80
2022/10/25 22:41:51;;;;;;;3.72;2.58;;;;;;;1.29;100.00;100723.81;10455127;28;20499;-77
2022/10/25 22:46:53;;;;;;;4.30;2.90;;;;;;;1.28;100.00;100714.88;10453600;28;20061;-76
2022/10/25 22:51:56;;;;;;;6.28;3.40;;;;;;;1.31;100.00;100716.31;10445421;28;20540;-83
2022/10/25 22:56:58;;;;;;;5.63;3.22;;;;;;;1.28;100.00;100712.19;10444090;28;20492;-78
2022/10/25 23:02:00;;;;;;;6.32;3.53;;;;;;;1.28;100.00;100706.78;10446095;28;20060;-74
2022/10/25 23:07:02;;;;;;;6.75;3.30;;;;;;;1.30;100.00;100701.97;10445403;28;20062;-78
2022/10/25 23:12:05;;;;;;;5.68;2.35;;;;;;;1.32;100.00;100699.06;10449051;28;20495;-79
2022/10/25 23:17:08;;;;;;;5.88;2.88;;;;;;;1.31;100.00;100703.63;10436201;28;20061;-77
2022/10/25 23:22:10;;;;;;;4.28;2.88;;;;;;;1.34;100.00;100694.25;10446028;28;20042;-76
2022/10/25 23:27:12;;;;;;;5.20;2.75;;;;;;;1.40;100.00;100691.53;10443237;28;20044;-74
2022/10/25 23:32:14;;;;;;;5.72;2.88;;;;;;;1.41;100.00;100693.19;10440801;28;20037;-74
2022/10/25 23:37:16;;;;;;;3.88;2.78;;;;;;;1.41;100.00;100695.06;10442796;28;20412;-77